createdAt,value
2023-03-03T00:01:17.890Z,15.57
2023-03-03T00:03:44.466Z,16.20
2023-03-03T00:06:13.182Z,18.00
2023-03-03T00:08:39.908Z,12.68
2023-03-03T00:11:07.688Z,14.10
2023-03-03T00:13:43.810Z,14.18
2023-03-03T00:16:25.212Z,14.68
2023-03-03T00:18:52.022Z,15.98
2023-03-03T00:21:29.796Z,13.52
2023-03-03T00:24:05.229Z,13.77
2023-03-03T00:26:36.404Z,14.60
2023-03-03T00:29:24.819Z,14.10
2023-03-03T00:31:51.184Z,15.25
2023-03-03T00:34:17.437Z,17.08
2023-03-03T00:36:44.904Z,13.43
2023-03-03T00:39:19.117Z,16.88
2023-03-03T00:41:45.540Z,14.32
2023-03-03T00:44:24.055Z,16.33
2023-03-03T00:46:50.407Z,17.92
2023-03-03T00:49:24.881Z,14.20
2023-03-03T00:51:51.504Z,15.43
2023-03-03T00:54:17.890Z,17.98
2023-03-03T00:56:44.598Z,14.52
2023-03-03T00:59:10.993Z,13.10
2023-03-03T01:01:37.416Z,14.73
2023-03-03T01:04:03.859Z,14.88
2023-03-03T01:06:30.275Z,13.32
2023-03-03T01:08:57.304Z,13.88
2023-03-03T01:11:26.419Z,15.38
2023-03-03T01:13:53.344Z,15.50
2023-03-03T01:16:20.551Z,13.95
2023-03-03T01:18:46.964Z,12.07
2023-03-03T01:21:13.469Z,13.95
2023-03-03T01:23:39.881Z,12.00
2023-03-03T01:26:06.350Z,11.48
2023-03-03T01:28:33.392Z,12.70
2023-03-03T01:31:04.761Z,13.13
2023-03-03T01:33:32.303Z,13.13
2023-03-03T01:35:58.837Z,11.77
2023-03-03T01:38:25.363Z,11.52
2023-03-03T01:40:54.248Z,11.25
2023-03-03T01:43:20.640Z,11.73
2023-03-03T01:45:46.897Z,11.45
2023-03-03T01:48:25.802Z,11.57
2023-03-03T01:50:56.306Z,12.77
2023-03-03T01:53:33.679Z,13.95
2023-03-03T01:56:00.981Z,13.73
2023-03-03T01:58:34.172Z,12.60
2023-03-03T02:01:03.316Z,15.73
2023-03-03T02:03:29.931Z,13.00
2023-03-03T02:05:59.630Z,13.52
2023-03-03T02:08:30.727Z,14.07
2023-03-03T02:10:57.477Z,13.77
2023-03-03T02:13:23.851Z,14.70
2023-03-03T02:15:51.825Z,14.75
2023-03-03T02:18:20.198Z,14.68
2023-03-03T02:20:55.865Z,15.35
2023-03-03T02:23:22.190Z,14.75
2023-03-03T02:25:52.694Z,14.00
2023-03-03T02:28:19.056Z,14.20
2023-03-03T02:30:45.421Z,17.67
2023-03-03T02:33:11.777Z,14.98
2023-03-03T02:35:40.317Z,13.32
2023-03-03T02:38:27.606Z,17.10
2023-03-03T02:41:11.786Z,15.48
2023-03-03T02:43:46.223Z,14.65
2023-03-03T02:46:12.728Z,18.27
2023-03-03T02:48:39.073Z,16.55
2023-03-03T02:51:05.552Z,17.38
2023-03-03T02:53:31.900Z,14.88
2023-03-03T02:55:58.237Z,15.50
2023-03-03T02:58:24.632Z,17.15
2023-03-03T03:00:51.082Z,16.27
2023-03-03T03:03:17.454Z,16.38
2023-03-03T03:05:43.863Z,19.02
2023-03-03T03:08:10.245Z,19.02
2023-03-03T03:10:36.941Z,19.88
2023-03-03T03:13:03.356Z,17.27
2023-03-03T03:15:29.715Z,19.08
2023-03-03T03:17:56.382Z,18.52
2023-03-03T03:20:22.802Z,21.85
2023-03-03T03:22:49.182Z,18.05
2023-03-03T03:25:15.629Z,20.80
2023-03-03T03:27:42.020Z,17.52
2023-03-03T03:30:08.934Z,19.38
2023-03-03T03:32:35.317Z,16.63
2023-03-03T03:35:01.814Z,16.45
2023-03-03T03:37:28.205Z,18.75
2023-03-03T03:39:54.977Z,20.27
2023-03-03T03:42:21.393Z,20.00
2023-03-03T03:44:47.876Z,19.75
2023-03-03T03:47:14.231Z,15.82
2023-03-03T03:49:40.694Z,18.77
2023-03-03T03:52:07.077Z,19.55
2023-03-03T03:54:33.476Z,19.23
2023-03-03T03:56:59.896Z,21.85
2023-03-03T03:59:26.270Z,22.27
2023-03-03T04:01:52.914Z,25.20
2023-03-03T04:04:19.258Z,24.35
2023-03-03T04:06:45.642Z,26.75
2023-03-03T04:09:12.164Z,22.80
2023-03-03T04:11:38.541Z,22.25
2023-03-03T04:14:04.959Z,21.30
2023-03-03T04:16:31.547Z,21.25
2023-03-03T04:18:57.977Z,26.23
2023-03-03T04:21:25.081Z,24.20
2023-03-03T04:23:53.180Z,24.83
2023-03-03T04:26:19.658Z,24.50
2023-03-03T04:28:46.036Z,25.23
2023-03-03T04:31:12.400Z,22.38
2023-03-03T04:33:38.774Z,25.42
2023-03-03T04:36:05.446Z,27.90
2023-03-03T04:38:31.908Z,25.65
2023-03-03T04:40:58.237Z,25.92
2023-03-03T04:43:24.569Z,28.27
2023-03-03T04:45:51.037Z,22.05
2023-03-03T04:48:17.451Z,27.58
2023-03-03T04:50:43.886Z,24.73
2023-03-03T04:53:10.412Z,26.13
2023-03-03T04:55:38.555Z,23.65
2023-03-03T04:58:05.433Z,22.60
2023-03-03T05:00:32.214Z,27.58
2023-03-03T05:02:59.546Z,26.15
2023-03-03T05:05:26.021Z,23.70
2023-03-03T05:07:52.502Z,25.75
2023-03-03T05:10:19.124Z,25.02
2023-03-03T05:12:45.589Z,23.50
2023-03-03T05:15:12.236Z,22.20
2023-03-03T05:17:38.702Z,22.38
2023-03-03T05:20:05.744Z,23.08
2023-03-03T05:22:32.223Z,27.30
2023-03-03T05:24:58.552Z,24.15
2023-03-03T05:27:24.956Z,25.80
2023-03-03T05:29:51.485Z,23.00
2023-03-03T05:32:18.007Z,25.15
2023-03-03T05:34:44.400Z,27.95
2023-03-03T05:37:10.775Z,22.95
2023-03-03T05:39:37.138Z,25.25
2023-03-03T05:42:03.582Z,27.10
2023-03-03T05:44:29.981Z,25.40
2023-03-03T05:46:57.655Z,29.05
2023-03-03T05:49:24.246Z,28.17
2023-03-03T05:51:50.687Z,24.50
2023-03-03T05:54:17.154Z,25.77
2023-03-03T05:56:43.536Z,24.95
2023-03-03T05:59:09.994Z,26.27
2023-03-03T06:01:36.379Z,26.48
2023-03-03T06:04:02.712Z,27.15
2023-03-03T06:06:29.060Z,23.70
2023-03-03T06:08:57.217Z,25.80
2023-03-03T06:11:23.887Z,23.88
2023-03-03T06:13:50.303Z,27.60
2023-03-03T06:16:16.647Z,27.55
2023-03-03T06:18:43.006Z,29.98
2023-03-03T06:21:09.447Z,34.33
2023-03-03T06:23:35.870Z,30.70
2023-03-03T06:26:02.200Z,32.97
2023-03-03T06:28:28.746Z,34.28
2023-03-03T06:30:55.818Z,35.80
2023-03-03T06:33:22.617Z,28.88
2023-03-03T06:35:53.357Z,26.67
2023-03-03T06:38:20.226Z,33.10
2023-03-03T06:40:47.573Z,52.90
2023-03-03T06:43:13.982Z,47.63
2023-03-03T06:45:40.607Z,46.00
2023-03-03T06:48:06.988Z,33.13
2023-03-03T06:50:33.345Z,35.33
2023-03-03T06:53:19.971Z,29.80
2023-03-03T06:55:46.614Z,29.67
2023-03-03T06:58:15.229Z,34.17
2023-03-03T07:00:44.101Z,27.58
2023-03-03T07:03:19.297Z,27.58
2023-03-03T07:05:45.655Z,29.45
2023-03-03T07:08:17.582Z,29.05
2023-03-03T07:10:45.334Z,32.50
2023-03-03T07:13:25.836Z,32.42
2023-03-03T07:16:01.349Z,37.63
2023-03-03T07:18:37.578Z,40.42
2023-03-03T07:21:14.780Z,34.00
2023-03-03T07:23:42.492Z,38.72
2023-03-03T07:26:20.706Z,43.83
2023-03-03T07:28:55.727Z,38.33
2023-03-03T07:31:28.389Z,36.00
2023-03-03T07:33:55.381Z,35.50
2023-03-03T07:36:27.442Z,38.03
2023-03-03T07:38:55.257Z,47.67
2023-03-03T07:41:25.222Z,43.97
2023-03-03T07:43:58.480Z,47.17
2023-03-03T07:46:37.160Z,46.72
2023-03-03T07:49:23.757Z,46.17
2023-03-03T07:51:55.344Z,45.28
2023-03-03T07:54:42.317Z,44.53
2023-03-03T07:57:19.242Z,47.83
2023-03-03T07:59:48.691Z,42.88
2023-03-03T08:02:33.432Z,45.40
2023-03-03T08:05:00.078Z,47.42
2023-03-03T08:07:26.588Z,44.33
2023-03-03T08:10:00.073Z,45.80
2023-03-03T08:12:34.127Z,48.38
2023-03-03T08:17:39.631Z,43.90
2023-03-03T08:20:28.793Z,43.40
2023-03-03T08:22:55.367Z,40.85
2023-03-03T08:25:21.706Z,42.78
2023-03-03T08:27:48.065Z,40.97
2023-03-03T08:30:14.632Z,40.90
2023-03-03T08:32:41.029Z,44.92
2023-03-03T08:35:08.699Z,44.75
2023-03-03T08:37:35.067Z,44.38
2023-03-03T08:40:01.446Z,45.03
2023-03-03T08:42:29.973Z,43.25
2023-03-03T08:44:56.344Z,40.40
2023-03-03T08:47:22.721Z,36.03
2023-03-03T08:49:49.073Z,40.15
2023-03-03T08:52:15.422Z,40.10
2023-03-03T08:54:41.797Z,43.70
2023-03-03T08:57:08.143Z,38.22
2023-03-03T08:59:38.844Z,39.85
2023-03-03T09:02:06.412Z,40.10
2023-03-03T09:04:32.912Z,36.38
2023-03-03T09:06:59.284Z,36.08
2023-03-03T09:09:25.680Z,33.63
2023-03-03T09:11:55.988Z,34.00
2023-03-03T09:14:22.343Z,31.83
2023-03-03T09:16:51.734Z,33.38
2023-03-03T09:19:30.490Z,30.42
2023-03-03T09:22:02.208Z,32.67
2023-03-03T09:24:31.008Z,37.88
2023-03-03T09:27:01.121Z,30.08
2023-03-03T09:29:30.870Z,30.80
2023-03-03T09:31:59.641Z,29.70
2023-03-03T09:34:42.474Z,31.60
2023-03-03T09:37:36.939Z,27.85
2023-03-03T09:40:30.006Z,28.02
2023-03-03T09:43:10.122Z,26.85
2023-03-03T09:45:52.833Z,28.88
2023-03-03T09:48:24.341Z,31.30
2023-03-03T09:51:06.308Z,24.67
2023-03-03T09:53:42.437Z,27.05
2023-03-03T09:56:23.737Z,27.88
2023-03-03T09:59:01.825Z,25.90
2023-03-03T10:01:49.533Z,30.90
2023-03-03T10:04:40.608Z,25.83
2023-03-03T10:07:51.343Z,27.23
2023-03-03T10:10:38.807Z,24.98
2023-03-03T10:13:20.881Z,27.05
2023-03-03T10:15:55.145Z,26.05
2023-03-03T10:18:39.597Z,26.67
2023-03-03T10:21:12.141Z,27.40
2023-03-03T10:23:57.609Z,23.30
2023-03-03T10:27:01.449Z,26.95
2023-03-03T10:29:56.526Z,25.77
2023-03-03T10:32:52.322Z,24.15
2023-03-03T10:35:33.643Z,22.05
2023-03-03T10:38:14.667Z,20.70
2023-03-03T10:40:49.677Z,22.35
2023-03-03T10:44:09.874Z,22.25
2023-03-03T10:47:09.332Z,22.00
2023-03-03T10:50:00.189Z,21.27
2023-03-03T10:52:48.285Z,27.38
2023-03-03T10:55:50.033Z,22.20
2023-03-03T10:58:16.359Z,20.05
2023-03-03T11:01:07.165Z,21.67
2023-03-03T11:03:44.267Z,20.30
2023-03-03T11:06:19.894Z,19.98
2023-03-03T11:08:55.253Z,19.27
2023-03-03T11:11:37.890Z,19.42
2023-03-03T11:14:21.211Z,19.83
2023-03-03T11:17:21.439Z,21.40
2023-03-03T11:19:52.559Z,23.25
2023-03-03T11:22:34.880Z,17.33
2023-03-03T11:25:46.368Z,19.70
2023-03-03T11:28:15.629Z,16.35
2023-03-03T11:30:50.940Z,17.50
2023-03-03T11:33:39.096Z,19.38
2023-03-03T11:36:11.213Z,15.80
2023-03-03T11:38:57.964Z,15.52
2023-03-03T11:41:58.092Z,15.32
2023-03-03T11:44:27.562Z,16.42
2023-03-03T11:46:59.537Z,16.63
2023-03-03T11:49:35.561Z,17.23
2023-03-03T11:52:37.920Z,17.02
2023-03-03T11:55:27.990Z,16.65
2023-03-03T11:58:20.351Z,14.25
2023-03-03T12:01:11.332Z,14.90
2023-03-03T12:03:42.311Z,15.73
2023-03-03T12:06:25.043Z,15.05
2023-03-03T12:08:57.044Z,15.27
2023-03-03T12:11:47.733Z,13.82
2023-03-03T12:14:41.756Z,14.55
2023-03-03T12:17:33.877Z,16.37
2023-03-03T12:20:25.303Z,13.75
2023-03-03T12:23:15.290Z,16.02
2023-03-03T12:25:44.445Z,13.98
2023-03-03T12:28:26.077Z,15.38
2023-03-03T12:31:03.763Z,13.77
2023-03-03T12:33:50.119Z,15.10
2023-03-03T12:36:32.718Z,16.30
2023-03-03T12:39:32.364Z,17.55
2023-03-03T12:42:15.779Z,16.88
2023-03-03T12:45:01.287Z,14.75
2023-03-03T12:47:46.948Z,14.85
2023-03-03T12:50:21.280Z,16.50
2023-03-03T12:53:35.802Z,15.85
2023-03-03T12:56:13.898Z,14.48
2023-03-03T12:58:57.985Z,15.48
2023-03-03T13:01:48.816Z,15.88
2023-03-03T13:04:27.045Z,16.25
2023-03-03T13:06:58.804Z,15.15
2023-03-03T13:09:40.526Z,14.35
2023-03-03T13:12:44.744Z,13.95
2023-03-03T13:15:46.314Z,14.07
2023-03-03T13:18:36.290Z,14.95
2023-03-03T13:25:29.954Z,13.55
2023-03-03T13:28:01.633Z,13.70
2023-03-03T13:30:33.582Z,13.45
2023-03-03T13:33:10.503Z,13.10
2023-03-03T13:35:51.812Z,12.57
2023-03-03T13:38:24.951Z,12.73
2023-03-03T13:41:01.219Z,13.98
2023-03-03T13:43:35.310Z,13.25
2023-03-03T13:46:26.733Z,11.65
2023-03-03T13:49:07.322Z,12.18
2023-03-03T13:51:44.428Z,11.75
2023-03-03T13:54:35.504Z,11.23
2023-03-03T13:57:24.312Z,11.85
2023-03-03T13:59:57.486Z,12.55
2023-03-03T14:02:48.929Z,11.25
2023-03-03T14:05:34.814Z,14.88
2023-03-03T14:08:25.252Z,10.25
2023-03-03T14:11:10.622Z,11.98
2023-03-03T14:13:49.518Z,15.13
2023-03-03T14:16:41.208Z,15.10
2023-03-03T14:19:17.234Z,14.55
2023-03-03T14:21:52.485Z,10.40
2023-03-03T14:24:21.853Z,10.60
2023-03-03T14:26:50.370Z,10.80
2023-03-03T14:29:22.142Z,9.93
2023-03-03T14:31:48.572Z,14.73
2023-03-03T14:34:23.828Z,13.80
2023-03-03T14:36:54.928Z,10.20
2023-03-03T14:39:36.208Z,7.15
2023-03-03T14:42:10.997Z,7.05
2023-03-03T14:44:50.940Z,12.07
2023-03-03T14:47:22.315Z,11.20
2023-03-03T14:49:49.113Z,10.82
2023-03-03T14:52:15.354Z,10.63
2023-03-03T14:54:47.241Z,12.63
2023-03-03T14:57:31.337Z,13.27
2023-03-03T15:00:07.847Z,14.38
2023-03-03T15:02:57.022Z,13.30
2023-03-03T15:05:28.065Z,13.07
2023-03-03T15:08:03.449Z,12.15
2023-03-03T15:10:31.677Z,12.95
2023-03-03T15:12:58.643Z,12.80
2023-03-03T15:15:26.761Z,9.48
2023-03-03T15:18:01.045Z,7.55
2023-03-03T15:20:39.669Z,6.40
2023-03-03T15:23:26.919Z,5.70
2023-03-03T15:25:58.976Z,5.32
2023-03-03T15:28:31.152Z,5.25
2023-03-03T15:31:13.526Z,6.75
2023-03-03T15:33:58.449Z,5.25
2023-03-03T15:36:44.938Z,5.88
2023-03-03T15:39:13.921Z,5.22
2023-03-03T15:42:07.943Z,5.22
2023-03-03T15:44:58.530Z,4.53
2023-03-03T15:47:50.969Z,5.43
2023-03-03T15:50:28.715Z,5.13
2023-03-03T15:53:05.937Z,6.93
2023-03-03T15:55:43.108Z,6.45
2023-03-03T15:58:37.303Z,6.30
2023-03-03T16:01:13.591Z,6.40
2023-03-03T16:03:48.156Z,6.35
2023-03-03T16:06:34.437Z,7.55
2023-03-03T16:09:07.988Z,6.03
2023-03-03T16:11:50.118Z,5.88
2023-03-03T16:14:38.787Z,5.70
2023-03-03T16:17:05.055Z,8.05
2023-03-03T16:19:43.430Z,4.53
2023-03-03T16:22:39.075Z,4.30
2023-03-03T16:25:05.354Z,4.72
2023-03-03T16:27:47.023Z,4.97
2023-03-03T16:30:27.321Z,4.72
2023-03-03T16:33:09.456Z,6.10
2023-03-03T16:35:54.683Z,6.22
2023-03-03T16:38:47.012Z,4.25
2023-03-03T16:41:19.762Z,4.75
2023-03-03T16:43:59.895Z,4.75
2023-03-03T16:46:38.882Z,4.72
2023-03-03T16:49:43.698Z,3.83
2023-03-03T16:52:15.575Z,3.08
2023-03-03T16:54:55.249Z,4.72
2023-03-03T16:57:58.383Z,5.68
2023-03-03T17:00:29.579Z,6.20
2023-03-03T17:02:55.808Z,3.42
2023-03-03T17:05:46.441Z,5.75
2023-03-03T17:08:49.866Z,5.60
2023-03-03T17:11:22.146Z,7.97
2023-03-03T17:13:48.444Z,4.43
2023-03-03T17:16:22.564Z,5.18
2023-03-03T17:21:45.005Z,7.90
2023-03-03T17:24:14.544Z,4.53
2023-03-03T17:26:51.703Z,5.03
2023-03-03T17:29:39.853Z,5.28
2023-03-03T17:32:29.894Z,5.15
2023-03-03T17:35:17.646Z,5.63
2023-03-03T17:37:47.956Z,7.57
2023-03-03T17:40:23.040Z,6.60
2023-03-03T17:43:13.196Z,5.95
2023-03-03T17:45:42.460Z,6.90
2023-03-03T17:48:19.711Z,8.40
2023-03-03T17:50:58.153Z,6.57
2023-03-03T17:54:06.673Z,8.75
2023-03-03T17:57:02.225Z,7.00
2023-03-03T18:00:03.642Z,10.23
2023-03-03T18:02:45.446Z,7.78
2023-03-03T18:05:29.110Z,7.50
2023-03-03T18:08:04.935Z,6.90
2023-03-03T18:10:58.897Z,6.63
2023-03-03T18:13:30.981Z,5.93
2023-03-03T18:16:11.585Z,6.35
2023-03-03T18:18:49.554Z,5.28
2023-03-03T18:21:21.243Z,5.35
2023-03-03T18:23:48.667Z,6.65
2023-03-03T18:26:35.047Z,6.38
2023-03-03T18:29:10.012Z,5.88
2023-03-03T18:31:50.270Z,7.07
2023-03-03T18:34:33.735Z,9.35
2023-03-03T18:37:31.381Z,7.10
2023-03-03T18:40:03.542Z,6.13
2023-03-03T18:42:39.509Z,8.07
2023-03-03T18:45:31.621Z,6.78
2023-03-03T18:48:00.784Z,5.72
2023-03-03T18:50:31.087Z,6.45
2023-03-03T18:53:21.949Z,6.93
2023-03-03T18:55:52.268Z,5.63
2023-03-03T18:58:18.529Z,5.82
2023-03-03T19:00:49.883Z,9.80
2023-03-03T19:03:39.000Z,7.32
2023-03-03T19:06:08.579Z,6.85
2023-03-03T19:08:56.365Z,6.40
2023-03-03T19:11:39.743Z,5.95
2023-03-03T19:14:15.022Z,6.32
2023-03-03T19:16:41.707Z,8.45
2023-03-03T19:19:22.043Z,7.53
2023-03-03T19:21:52.259Z,6.47
2023-03-03T19:24:28.763Z,8.85
2023-03-03T19:27:24.212Z,10.65
2023-03-03T19:30:00.562Z,10.70
2023-03-03T19:32:45.480Z,14.50
2023-03-03T19:35:17.642Z,13.80
2023-03-03T19:38:29.348Z,11.23
2023-03-03T19:41:09.094Z,11.55
2023-03-03T19:43:55.888Z,12.35
2023-03-03T19:47:04.100Z,12.40
2023-03-03T19:49:48.462Z,13.18
2023-03-03T19:55:08.250Z,9.00
2023-03-03T19:58:03.934Z,11.18
2023-03-03T20:00:39.672Z,8.73
2023-03-03T20:03:44.983Z,11.25
2023-03-03T20:06:20.632Z,12.45
2023-03-03T20:09:03.758Z,9.98
2023-03-03T20:11:46.173Z,9.25
2023-03-03T20:14:46.037Z,8.73
2023-03-03T20:17:27.178Z,7.72
2023-03-03T20:20:02.438Z,10.38
2023-03-03T20:22:43.645Z,9.18
2023-03-03T20:25:22.182Z,12.13
2023-03-03T20:28:05.825Z,15.77
2023-03-03T20:30:45.520Z,12.32
2023-03-03T20:33:32.017Z,12.10
2023-03-03T20:36:26.231Z,10.95
2023-03-03T20:39:07.164Z,14.93
2023-03-03T20:41:51.756Z,14.18
2023-03-03T20:44:53.292Z,11.77
2023-03-03T20:47:30.977Z,16.98
2023-03-03T20:50:19.383Z,12.18
2023-03-03T20:53:07.592Z,13.52
2023-03-03T20:55:55.226Z,12.45
2023-03-03T20:58:31.360Z,10.18
2023-03-03T21:01:06.977Z,10.95
2023-03-03T21:03:42.254Z,11.07
2023-03-03T21:06:15.456Z,16.55
2023-03-03T21:08:56.176Z,12.37
2023-03-03T21:11:25.750Z,11.90
2023-03-03T21:13:54.090Z,12.52
2023-03-03T21:16:20.346Z,13.27
2023-03-03T21:19:05.719Z,11.25
2023-03-03T21:21:34.752Z,13.35
2023-03-03T21:24:01.473Z,11.18
2023-03-03T21:26:52.719Z,14.32
2023-03-03T21:29:31.939Z,12.55
2023-03-03T21:32:00.829Z,13.43
2023-03-03T21:34:34.082Z,14.15
2023-03-03T21:37:02.092Z,12.45
2023-03-03T21:39:33.886Z,14.88
2023-03-03T21:42:21.480Z,15.38
2023-03-03T21:44:49.679Z,13.82
2023-03-03T21:47:21.401Z,13.20
2023-03-03T21:49:49.953Z,16.45
2023-03-03T21:52:17.588Z,18.90
2023-03-03T21:54:44.696Z,18.50
2023-03-03T21:57:11.449Z,17.10
2023-03-03T21:59:37.922Z,20.77
2023-03-03T22:02:05.000Z,17.50
2023-03-03T22:04:31.464Z,18.55
2023-03-03T22:06:57.994Z,18.73
2023-03-03T22:09:24.528Z,20.63
2023-03-03T22:11:50.893Z,19.83
2023-03-03T22:14:17.343Z,18.67
2023-03-03T22:16:44.034Z,20.67
2023-03-03T22:19:10.522Z,19.48
2023-03-03T22:21:38.285Z,16.42
2023-03-03T22:24:05.646Z,18.08
2023-03-03T22:26:32.435Z,17.48
2023-03-03T22:28:58.918Z,19.90
2023-03-03T22:31:25.415Z,20.70
2023-03-03T22:33:51.964Z,18.85
2023-03-03T22:36:20.960Z,20.92
2023-03-03T22:38:47.591Z,23.15
2023-03-03T22:41:14.527Z,22.65
2023-03-03T22:43:41.766Z,20.63
2023-03-03T22:46:08.213Z,21.15
2023-03-03T22:48:34.568Z,22.63
2023-03-03T22:51:00.963Z,18.27
2023-03-03T22:53:27.381Z,17.92
2023-03-03T22:55:53.754Z,19.83
2023-03-03T22:58:20.536Z,17.40
2023-03-03T23:00:48.231Z,19.23
2023-03-03T23:03:15.823Z,19.40
2023-03-03T23:05:42.371Z,18.35
2023-03-03T23:08:12.535Z,20.13
2023-03-03T23:10:39.177Z,22.48
2023-03-03T23:13:05.617Z,24.80
2023-03-03T23:15:32.278Z,19.20
2023-03-03T23:17:58.637Z,21.35
2023-03-03T23:20:27.242Z,20.52
2023-03-03T23:22:54.072Z,20.63
2023-03-03T23:25:22.835Z,20.42
2023-03-03T23:27:50.013Z,21.00
2023-03-03T23:30:17.625Z,22.35
2023-03-03T23:32:44.671Z,22.05
2023-03-03T23:35:11.368Z,21.63
2023-03-03T23:37:37.747Z,19.17
2023-03-03T23:40:04.493Z,23.65
2023-03-03T23:42:30.914Z,21.92
2023-03-03T23:44:57.453Z,20.95
2023-03-03T23:47:24.287Z,24.45
2023-03-03T23:49:52.524Z,24.58
2023-03-03T23:52:18.864Z,24.42
2023-03-03T23:54:45.894Z,26.15
2023-03-03T23:57:12.271Z,22.77
2023-03-03T23:59:38.611Z,23.33
